Terminal Aerodrome Forecast
Issued by NWS

Home | Current Version | Previous Version | Text Only | Print | Product List | Glossary On
Versions: 1 2 3 4 5 6 7 8 9 10 11 12 13 14 15 16 17 18 19 20 21 22 23 24 25 26 27 28 29 30 31 32 33 34
000
FTUS41 KBOX 310904 AAB
TAFFMH
TAF AMD
KFMH 310904Z 3109/0106 21009KT P6SM BKN045
     FM311300 22012G20KT P6SM BKN035
     FM010000 21012G20KT 3SM BR BKN060
     FM010300 22011G19KT 3SM -SHRA BR OVC005=

USA.gov is the U.S. government's official web portal to all federal, state and local government web resources and services.